createdAt,value
2018-07-09T15:20:19.910Z,50.90
2018-07-09T15:22:51.885Z,50.90
2018-07-09T15:25:19.381Z,50.60
2018-07-09T15:27:47.648Z,50.90
2018-07-09T15:30:15.835Z,50.90
2018-07-09T15:32:43.466Z,50.90
2018-07-09T15:35:11.032Z,50.50
2018-07-09T15:37:40.525Z,50.30
2018-07-09T15:40:08.101Z,50.10
2018-07-09T15:42:37.645Z,50.70
2018-07-09T15:45:05.222Z,50.60
2018-07-09T15:47:32.863Z,50.90
2018-07-09T15:50:01.352Z,51.30
2018-07-09T15:52:29.345Z,51.60
2018-07-09T15:54:59.225Z,51.50
2018-07-09T15:57:27.166Z,51.90
2018-07-09T15:59:56.557Z,51.90
2018-07-09T16:02:24.163Z,52.30
2018-07-09T16:04:52.157Z,52.60
2018-07-09T16:07:20.489Z,52.60
2018-07-09T16:09:48.037Z,52.60
2018-07-09T16:12:15.587Z,52.60
2018-07-09T16:14:43.230Z,52.90
2018-07-09T16:17:11.472Z,52.30
2018-07-09T16:19:39.440Z,52.90
2018-07-09T16:22:06.985Z,52.90
2018-07-09T16:24:37.279Z,52.90
2018-07-09T16:27:05.724Z,52.90
2018-07-09T16:29:33.389Z,53.30
2018-07-09T16:32:00.939Z,53.30
2018-07-09T16:34:28.505Z,53.20
2018-07-09T16:36:56.073Z,53.30
2018-07-09T16:39:23.790Z,53.70
2018-07-09T16:41:51.803Z,54.30
2018-07-09T16:44:20.961Z,54.30
2018-07-09T16:46:48.627Z,53.30
2018-07-09T16:49:16.192Z,53.90
2018-07-09T16:51:45.764Z,53.80
2018-07-09T16:54:13.391Z,53.70
2018-07-09T16:56:41.044Z,53.30
2018-07-09T16:59:08.659Z,52.40
2018-07-09T17:01:36.220Z,51.50
2018-07-09T17:04:04.250Z,50.10
2018-07-09T17:06:31.865Z,50.10
2018-07-09T17:09:00.214Z,50.40
2018-07-09T17:11:27.829Z,50.10
2018-07-09T17:13:56.704Z,50.10
2018-07-09T17:16:25.695Z,50.50
2018-07-09T17:18:54.000Z,51.20
2018-07-09T17:21:21.525Z,51.50
2018-07-09T17:23:49.066Z,52.00
2018-07-09T17:26:16.690Z,52.90
2018-07-09T17:28:50.833Z,53.50
2018-07-09T17:31:20.666Z,53.50
2018-07-09T17:33:48.263Z,53.50
2018-07-09T17:36:18.267Z,53.50
2018-07-09T17:38:46.703Z,54.20
2018-07-09T17:41:14.282Z,54.50
2018-07-09T17:43:42.023Z,54.90
2018-07-09T17:46:10.256Z,55.00
2018-07-09T17:48:40.137Z,55.50
2018-07-09T17:51:09.083Z,55.10
2018-07-09T17:53:36.633Z,56.00
2018-07-09T17:56:06.404Z,57.30
2018-07-09T17:58:33.937Z,57.30
2018-07-09T18:01:03.747Z,57.60
2018-07-09T18:03:32.033Z,57.70
2018-07-09T18:05:59.814Z,57.90
2018-07-09T18:08:27.402Z,57.90
2018-07-09T18:10:56.176Z,58.50
2018-07-09T18:13:24.615Z,58.80
2018-07-09T18:15:54.249Z,59.20
2018-07-09T18:18:21.861Z,59.80
2018-07-09T18:20:49.602Z,60.50
2018-07-09T18:23:17.581Z,60.90
2018-07-09T18:25:45.179Z,60.90
2018-07-09T18:28:13.394Z,60.70
2018-07-09T18:30:41.003Z,60.40
2018-07-09T18:33:08.630Z,60.70
2018-07-09T18:35:36.688Z,61.60
2018-07-09T18:38:04.196Z,61.60
2018-07-09T18:40:31.778Z,62.10
2018-07-09T18:42:59.294Z,62.20
2018-07-09T18:45:27.760Z,62.30
2018-07-09T18:47:55.790Z,62.80
2018-07-09T18:50:23.342Z,62.80
2018-07-09T18:52:51.718Z,62.90
2018-07-09T18:55:19.349Z,63.10
2018-07-09T18:57:48.080Z,63.40
2018-07-09T19:00:15.688Z,63.60
2018-07-09T19:02:45.294Z,63.80
2018-07-09T19:05:13.266Z,63.80
2018-07-09T19:07:40.917Z,63.80
2018-07-09T19:10:08.932Z,64.10
2018-07-09T19:12:37.698Z,64.10
2018-07-09T19:15:05.802Z,64.30
2018-07-09T19:17:35.297Z,64.40
2018-07-09T19:20:03.362Z,64.50
2018-07-09T19:22:30.959Z,64.60
2018-07-09T19:25:00.168Z,64.80
2018-07-09T19:27:27.845Z,64.90
2018-07-09T19:29:55.046Z,65.00
2018-07-09T19:32:22.279Z,65.10
2018-07-09T19:34:49.363Z,65.30
2018-07-09T19:37:17.674Z,65.40
2018-07-09T19:39:44.542Z,65.60
2018-07-09T19:42:13.224Z,65.60
2018-07-09T19:44:40.329Z,65.40
2018-07-09T19:47:07.471Z,65.50
2018-07-09T19:49:34.654Z,65.50
2018-07-09T19:52:01.834Z,65.70
2018-07-09T19:54:28.988Z,65.70
2018-07-09T19:56:56.652Z,65.80
2018-07-09T19:59:23.734Z,66.10
2018-07-09T20:01:51.229Z,66.20
2018-07-09T20:04:18.278Z,66.20
2018-07-09T20:06:45.395Z,66.30
2018-07-09T20:09:12.550Z,66.30
2018-07-09T20:11:55.678Z,66.20
2018-07-09T20:14:28.214Z,66.40
2018-07-09T20:17:00.969Z,66.60
2018-07-09T20:19:28.757Z,66.80
2018-07-09T20:21:55.908Z,66.70
2018-07-09T20:25:04.260Z,66.80
2018-07-09T20:27:31.674Z,66.70
2018-07-09T20:29:59.109Z,66.60
2018-07-09T20:32:27.883Z,66.60
2018-07-09T20:34:55.354Z,66.60
2018-07-09T20:37:23.102Z,66.50
2018-07-09T20:39:50.603Z,66.50
2018-07-09T20:42:18.017Z,66.60
2018-07-09T20:44:45.466Z,66.70
2018-07-09T20:47:12.950Z,66.80
2018-07-09T20:49:40.484Z,66.80
2018-07-09T20:52:07.941Z,66.90
2018-07-09T20:54:35.755Z,67.00
2018-07-09T20:57:03.517Z,67.00
2018-07-09T20:59:31.078Z,67.00
2018-07-09T21:01:58.492Z,67.10
2018-07-09T21:04:27.900Z,67.10
2018-07-09T21:06:56.949Z,67.30
2018-07-09T21:09:24.940Z,67.30
2018-07-09T21:11:53.627Z,67.40
2018-07-09T21:14:21.357Z,67.50
2018-07-09T21:16:48.776Z,67.50
2018-07-09T21:19:16.309Z,67.60
2018-07-09T21:21:43.799Z,67.50
2018-07-09T21:24:11.319Z,67.60
2018-07-09T21:26:38.829Z,67.60
2018-07-09T21:29:06.223Z,67.60
2018-07-09T21:31:34.408Z,67.80
2018-07-09T21:34:02.980Z,67.90
2018-07-09T21:36:30.545Z,68.10
2018-07-09T21:38:58.800Z,68.10
2018-07-09T21:41:26.238Z,68.10
2018-07-09T21:43:53.718Z,68.20
2018-07-09T21:46:21.163Z,68.30
2018-07-09T21:48:48.950Z,68.30
2018-07-09T21:51:16.398Z,68.10
2018-07-09T21:53:43.896Z,68.10
2018-07-09T21:56:11.415Z,68.00
2018-07-09T21:58:38.936Z,68.00
2018-07-09T22:01:06.536Z,68.00
2018-07-09T22:03:35.952Z,67.90
2018-07-09T22:06:03.467Z,68.00
2018-07-09T22:08:31.468Z,68.10
2018-07-09T22:10:58.909Z,68.10
2018-07-09T22:13:27.272Z,67.90
2018-07-09T22:15:54.731Z,67.80
2018-07-09T22:18:22.246Z,68.00
2018-07-09T22:20:49.658Z,68.00
2018-07-09T22:23:17.191Z,67.80
2018-07-09T22:25:44.752Z,67.70
2018-07-09T22:28:12.241Z,67.70
2018-07-09T22:30:41.095Z,67.60
2018-07-09T22:33:09.829Z,67.60
2018-07-09T22:35:38.566Z,67.70
2018-07-09T22:38:08.475Z,67.60
2018-07-09T22:40:37.325Z,67.50
2018-07-09T22:43:17.189Z,67.80
2018-07-09T22:45:45.927Z,67.80
2018-07-09T22:48:14.638Z,67.90
2018-07-09T22:50:43.409Z,67.90
2018-07-09T22:53:12.221Z,67.80
2018-07-09T22:55:52.101Z,68.10
2018-07-09T22:58:22.795Z,68.10
2018-07-09T23:00:51.546Z,67.80
2018-07-09T23:03:20.319Z,67.90
2018-07-09T23:05:49.838Z,67.70
2018-07-09T23:08:19.270Z,67.50
2018-07-09T23:13:01.765Z,67.40
2018-07-09T23:15:44.245Z,66.90
2018-07-09T23:19:23.760Z,67.30
2018-07-09T23:22:04.317Z,67.10
2018-07-09T23:24:31.834Z,67.10
2018-07-09T23:26:59.250Z,67.10
2018-07-09T23:29:26.777Z,67.30
2018-07-09T23:31:54.228Z,67.10
2018-07-09T23:34:21.762Z,67.10
2018-07-09T23:36:49.249Z,67.30
2018-07-09T23:39:16.749Z,67.10
2018-07-09T23:41:44.313Z,67.30
2018-07-09T23:44:11.791Z,67.40
2018-07-09T23:46:39.324Z,67.60
2018-07-09T23:49:06.941Z,67.50
2018-07-09T23:51:34.353Z,67.50
2018-07-09T23:54:01.866Z,67.50
2018-07-09T23:59:45.008Z,67.40
